Hanalei, Hawaii
Current Conditions -  °F | °C
As of 11:53 PM on Tuesday 21 Oct 2014 (Local Time) from PHLI Reporting Station
Few Clouds Few Clouds  
Wind Chill: 26°   Ceiling: Unl
Heat Index: 28°   Visibility: 10mi
Dew Point: 22°   Wind: 10mph
Humidity: 79%   Direction: 100°E
Pressure: 30.01"   Gusts: NA
Location:  22.2°N, 159.49°W
Report Text: PHLI 220953Z AUTO 10009KT 10SM FEW055 26/22 A3001 RMK AO2 SLP161 T02610222 402940244 TSNO
Loading
Personal Weather Stations






























Interactive Weather Map
Tropical Storm Tracking
New forecast layout! Learn more

10-Day Weather Forecast

Advertisements
Track Severe Weather on mobile